sensor_id;sensor_type;location;lat;lon;timestamp;temperature;humidity
13405;DHT22;6773;51.192;7.024;2022-10-03T00:12:13;9.00;99.90
13405;DHT22;6773;51.192;7.024;2022-10-03T00:15:05;9.00;99.90
13405;DHT22;6773;51.192;7.024;2022-10-03T00:17:51;8.90;99.90
13405;DHT22;6773;51.192;7.024;2022-10-03T00:20:45;8.90;99.90
13405;DHT22;6773;51.192;7.024;2022-10-03T00:28:42;8.90;99.90
13405;DHT22;6773;51.192;7.024;2022-10-03T00:33:53;8.80;99.90
13405;DHT22;6773;51.192;7.024;2022-10-03T00:36:29;8.80;99.90
13405;DHT22;6773;51.192;7.024;2022-10-03T00:45:18;8.80;99.90
13405;DHT22;6773;51.192;7.024;2022-10-03T00:50:52;8.80;99.90
13405;DHT22;6773;51.192;7.024;2022-10-03T00:59:25;8.80;99.90
13405;DHT22;6773;51.192;7.024;2022-10-03T01:24:48;8.60;99.90
13405;DHT22;6773;51.192;7.024;2022-10-03T01:27:25;8.60;99.90
13405;DHT22;6773;51.192;7.024;2022-10-03T01:30:03;8.60;99.90
13405;DHT22;6773;51.192;7.024;2022-10-03T01:33:08;8.50;99.90
13405;DHT22;6773;51.192;7.024;2022-10-03T01:36:11;8.50;99.90
13405;DHT22;6773;51.192;7.024;2022-10-03T01:39:01;8.40;99.90
13405;DHT22;6773;51.192;7.024;2022-10-03T01:41:51;8.40;99.90
13405;DHT22;6773;51.192;7.024;2022-10-03T01:44:40;8.50;99.90
13405;DHT22;6773;51.192;7.024;2022-10-03T01:50:12;8.50;99.90
13405;DHT22;6773;51.192;7.024;2022-10-03T01:55:33;8.40;99.90
13405;DHT22;6773;51.192;7.024;2022-10-03T01:58:39;8.40;99.90
13405;DHT22;6773;51.192;7.024;2022-10-03T02:01:13;8.40;99.90
13405;DHT22;6773;51.192;7.024;2022-10-03T02:03:49;8.30;99.90
13405;DHT22;6773;51.192;7.024;2022-10-03T02:06:31;8.30;99.90
13405;DHT22;6773;51.192;7.024;2022-10-03T02:09:17;8.30;99.90
13405;DHT22;6773;51.192;7.024;2022-10-03T02:14:34;8.30;99.90
13405;DHT22;6773;51.192;7.024;2022-10-03T02:20:29;8.40;99.90
13405;DHT22;6773;51.192;7.024;2022-10-03T02:23:00;8.50;99.90
13405;DHT22;6773;51.192;7.024;2022-10-03T02:28:24;8.50;99.90
13405;DHT22;6773;51.192;7.024;2022-10-03T02:36:47;8.40;99.90
13405;DHT22;6773;51.192;7.024;2022-10-03T02:50:37;8.40;99.90
13405;DHT22;6773;51.192;7.024;2022-10-03T02:53:42;8.30;99.90
13405;DHT22;6773;51.192;7.024;2022-10-03T03:04:48;8.30;99.90
13405;DHT22;6773;51.192;7.024;2022-10-03T03:07:42;8.30;99.90
13405;DHT22;6773;51.192;7.024;2022-10-03T03:21:33;8.40;99.90
13405;DHT22;6773;51.192;7.024;2022-10-03T03:27:08;8.40;99.90
13405;DHT22;6773;51.192;7.024;2022-10-03T03:38:18;8.30;99.90
13405;DHT22;6773;51.192;7.024;2022-10-03T03:41:05;8.30;99.90
13405;DHT22;6773;51.192;7.024;2022-10-03T03:46:24;8.30;99.90
13405;DHT22;6773;51.192;7.024;2022-10-03T03:49:03;8.30;99.90
13405;DHT22;6773;51.192;7.024;2022-10-03T03:51:49;8.40;99.90
13405;DHT22;6773;51.192;7.024;2022-10-03T04:02:56;8.50;99.90
13405;DHT22;6773;51.192;7.024;2022-10-03T04:22:53;8.70;99.90
13405;DHT22;6773;51.192;7.024;2022-10-03T04:39:13;8.70;99.90
13405;DHT22;6773;51.192;7.024;2022-10-03T04:42:32;8.60;99.90
13405;DHT22;6773;51.192;7.024;2022-10-03T04:47:27;8.60;99.90
13405;DHT22;6773;51.192;7.024;2022-10-03T04:55:41;8.70;99.90
13405;DHT22;6773;51.192;7.024;2022-10-03T04:58:21;8.70;99.90
13405;DHT22;6773;51.192;7.024;2022-10-03T05:01:29;8.70;99.90
13405;DHT22;6773;51.192;7.024;2022-10-03T05:04:15;8.70;99.90
13405;DHT22;6773;51.192;7.024;2022-10-03T05:09:37;8.80;99.90
13405;DHT22;6773;51.192;7.024;2022-10-03T05:23:16;8.90;99.90
13405;DHT22;6773;51.192;7.024;2022-10-03T05:26:10;9.00;99.90
13405;DHT22;6773;51.192;7.024;2022-10-03T05:28:50;9.00;99.90
13405;DHT22;6773;51.192;7.024;2022-10-03T05:39:44;9.00;99.90
13405;DHT22;6773;51.192;7.024;2022-10-03T05:42:35;9.00;99.90
13405;DHT22;6773;51.192;7.024;2022-10-03T05:45:24;9.00;99.90
13405;DHT22;6773;51.192;7.024;2022-10-03T06:11:17;9.30;99.90
13405;DHT22;6773;51.192;7.024;2022-10-03T06:19:48;9.40;99.90
13405;DHT22;6773;51.192;7.024;2022-10-03T06:22:33;9.40;99.90
13405;DHT22;6773;51.192;7.024;2022-10-03T06:28:01;9.40;99.90
13405;DHT22;6773;51.192;7.024;2022-10-03T06:51:03;9.80;99.90
13405;DHT22;6773;51.192;7.024;2022-10-03T06:53:45;9.80;99.90
13405;DHT22;6773;51.192;7.024;2022-10-03T06:56:53;9.90;99.90
13405;DHT22;6773;51.192;7.024;2022-10-03T07:20:52;10.00;99.90
13405;DHT22;6773;51.192;7.024;2022-10-03T07:29:16;10.10;99.90
13405;DHT22;6773;51.192;7.024;2022-10-03T07:34:43;10.00;99.90
13405;DHT22;6773;51.192;7.024;2022-10-03T07:45:44;10.80;99.90
13405;DHT22;6773;51.192;7.024;2022-10-03T07:48:22;11.10;99.90
13405;DHT22;6773;51.192;7.024;2022-10-03T07:59:32;10.90;99.90
13405;DHT22;6773;51.192;7.024;2022-10-03T08:05:25;10.80;99.90
13405;DHT22;6773;51.192;7.024;2022-10-03T08:08:20;10.90;99.90
13405;DHT22;6773;51.192;7.024;2022-10-03T08:11:19;10.90;99.90
13405;DHT22;6773;51.192;7.024;2022-10-03T08:17:04;11.20;99.90
13405;DHT22;6773;51.192;7.024;2022-10-03T08:33:30;11.50;99.90
13405;DHT22;6773;51.192;7.024;2022-10-03T08:41:37;11.50;99.90
13405;DHT22;6773;51.192;7.024;2022-10-03T09:00:22;12.90;99.90
13405;DHT22;6773;51.192;7.024;2022-10-03T09:03:14;13.00;99.90
13405;DHT22;6773;51.192;7.024;2022-10-03T09:05:54;13.40;99.90
13405;DHT22;6773;51.192;7.024;2022-10-03T09:20:08;14.00;99.90
13405;DHT22;6773;51.192;7.024;2022-10-03T09:23:01;14.00;99.90
13405;DHT22;6773;51.192;7.024;2022-10-03T09:31:14;14.30;99.90
13405;DHT22;6773;51.192;7.024;2022-10-03T09:37:13;14.70;99.90
13405;DHT22;6773;51.192;7.024;2022-10-03T09:40:12;14.80;99.90
13405;DHT22;6773;51.192;7.024;2022-10-03T09:48:35;15.30;99.90
13405;DHT22;6773;51.192;7.024;2022-10-03T09:57:01;16.20;99.90
13405;DHT22;6773;51.192;7.024;2022-10-03T10:02:37;16.70;99.90
13405;DHT22;6773;51.192;7.024;2022-10-03T10:17:31;17.30;99.90
13405;DHT22;6773;51.192;7.024;2022-10-03T10:28:28;17.40;99.90
13405;DHT22;6773;51.192;7.024;2022-10-03T10:39:33;16.90;99.90
13405;DHT22;6773;51.192;7.024;2022-10-03T10:54:24;16.70;99.90
13405;DHT22;6773;51.192;7.024;2022-10-03T11:38:20;17.00;99.90
13405;DHT22;6773;51.192;7.024;2022-10-03T11:41:08;17.00;99.90
13405;DHT22;6773;51.192;7.024;2022-10-03T11:54:39;19.60;99.90
13405;DHT22;6773;51.192;7.024;2022-10-03T11:57:23;19.90;99.90
13405;DHT22;6773;51.192;7.024;2022-10-03T12:00:10;19.60;99.10
13405;DHT22;6773;51.192;7.024;2022-10-03T12:06:02;18.70;96.90
13405;DHT22;6773;51.192;7.024;2022-10-03T12:09:15;18.10;99.90
13405;DHT22;6773;51.192;7.024;2022-10-03T12:11:57;17.80;99.90
13405;DHT22;6773;51.192;7.024;2022-10-03T12:14:31;17.80;99.90
13405;DHT22;6773;51.192;7.024;2022-10-03T12:17:07;17.80;99.90
13405;DHT22;6773;51.192;7.024;2022-10-03T12:23:01;17.70;99.90
13405;DHT22;6773;51.192;7.024;2022-10-03T12:25:34;17.70;99.90
13405;DHT22;6773;51.192;7.024;2022-10-03T12:28:22;17.60;99.90
13405;DHT22;6773;51.192;7.024;2022-10-03T12:36:00;17.80;99.90
13405;DHT22;6773;51.192;7.024;2022-10-03T12:38:30;17.80;99.90
13405;DHT22;6773;51.192;7.024;2022-10-03T12:50:00;18.40;99.90
13405;DHT22;6773;51.192;7.024;2022-10-03T12:53:21;18.30;99.90
13405;DHT22;6773;51.192;7.024;2022-10-03T12:55:26;18.20;99.90
13405;DHT22;6773;51.192;7.024;2022-10-03T13:00:57;19.20;99.90
13405;DHT22;6773;51.192;7.024;2022-10-03T13:03:54;18.80;92.90
13405;DHT22;6773;51.192;7.024;2022-10-03T13:09:29;18.40;98.00
13405;DHT22;6773;51.192;7.024;2022-10-03T13:20:00;17.70;99.90
13405;DHT22;6773;51.192;7.024;2022-10-03T13:25:28;17.80;99.90
13405;DHT22;6773;51.192;7.024;2022-10-03T13:28:11;17.80;99.90
13405;DHT22;6773;51.192;7.024;2022-10-03T13:30:52;17.70;99.90
13405;DHT22;6773;51.192;7.024;2022-10-03T13:33:21;17.70;99.90
13405;DHT22;6773;51.192;7.024;2022-10-03T13:44:48;17.40;99.90
13405;DHT22;6773;51.192;7.024;2022-10-03T13:47:49;17.40;99.90
13405;DHT22;6773;51.192;7.024;2022-10-03T13:50:25;17.40;99.90
13405;DHT22;6773;51.192;7.024;2022-10-03T13:53:12;17.40;99.90
13405;DHT22;6773;51.192;7.024;2022-10-03T13:55:47;17.60;99.90
13405;DHT22;6773;51.192;7.024;2022-10-03T14:04:43;18.20;99.70
13405;DHT22;6773;51.192;7.024;2022-10-03T14:08:04;17.80;99.50
13405;DHT22;6773;51.192;7.024;2022-10-03T14:10:24;17.70;99.90
13405;DHT22;6773;51.192;7.024;2022-10-03T14:16:02;17.60;99.90
13405;DHT22;6773;51.192;7.024;2022-10-03T14:18:44;17.40;99.90
13405;DHT22;6773;51.192;7.024;2022-10-03T14:21:46;17.40;99.90
13405;DHT22;6773;51.192;7.024;2022-10-03T14:29:59;17.00;99.90
13405;DHT22;6773;51.192;7.024;2022-10-03T14:35:35;16.70;99.90
13405;DHT22;6773;51.192;7.024;2022-10-03T14:38:33;16.50;99.90
13405;DHT22;6773;51.192;7.024;2022-10-03T14:41:32;16.40;99.90
13405;DHT22;6773;51.192;7.024;2022-10-03T14:44:06;16.40;99.90
13405;DHT22;6773;51.192;7.024;2022-10-03T14:46:40;16.40;99.90
13405;DHT22;6773;51.192;7.024;2022-10-03T14:49:16;16.40;99.90
13405;DHT22;6773;51.192;7.024;2022-10-03T14:51:52;16.30;99.90
13405;DHT22;6773;51.192;7.024;2022-10-03T14:54:23;16.30;99.90
13405;DHT22;6773;51.192;7.024;2022-10-03T14:56:51;16.40;99.90
13405;DHT22;6773;51.192;7.024;2022-10-03T14:59:30;16.50;99.90
13405;DHT22;6773;51.192;7.024;2022-10-03T15:02:00;16.50;99.90
13405;DHT22;6773;51.192;7.024;2022-10-03T15:04:31;16.60;99.90
13405;DHT22;6773;51.192;7.024;2022-10-03T15:07:02;16.60;99.90
13405;DHT22;6773;51.192;7.024;2022-10-03T15:12:00;16.60;99.90
13405;DHT22;6773;51.192;7.024;2022-10-03T15:14:33;16.60;99.90
13405;DHT22;6773;51.192;7.024;2022-10-03T15:17:03;16.60;99.90
13405;DHT22;6773;51.192;7.024;2022-10-03T15:19:37;16.60;99.90
13405;DHT22;6773;51.192;7.024;2022-10-03T15:24:51;16.60;99.90
13405;DHT22;6773;51.192;7.024;2022-10-03T15:27:21;16.50;99.90
13405;DHT22;6773;51.192;7.024;2022-10-03T15:29:54;16.50;99.90
13405;DHT22;6773;51.192;7.024;2022-10-03T15:32:32;16.40;99.90
13405;DHT22;6773;51.192;7.024;2022-10-03T15:35:00;16.50;99.90
13405;DHT22;6773;51.192;7.024;2022-10-03T15:37:30;16.40;99.90
13405;DHT22;6773;51.192;7.024;2022-10-03T15:40:07;16.40;99.90
13405;DHT22;6773;51.192;7.024;2022-10-03T15:42:46;16.30;99.90
13405;DHT22;6773;51.192;7.024;2022-10-03T15:45:24;16.30;99.90
13405;DHT22;6773;51.192;7.024;2022-10-03T15:47:56;16.10;99.90
13405;DHT22;6773;51.192;7.024;2022-10-03T15:50:26;16.00;99.90
13405;DHT22;6773;51.192;7.024;2022-10-03T15:52:59;16.00;99.90
13405;DHT22;6773;51.192;7.024;2022-10-03T15:55:35;15.90;99.90
13405;DHT22;6773;51.192;7.024;2022-10-03T15:58:23;15.80;99.90
13405;DHT22;6773;51.192;7.024;2022-10-03T16:01:08;15.70;99.90
13405;DHT22;6773;51.192;7.024;2022-10-03T16:06:19;15.60;99.90
13405;DHT22;6773;51.192;7.024;2022-10-03T16:08:55;15.60;99.90
13405;DHT22;6773;51.192;7.024;2022-10-03T16:16:35;15.40;99.90
13405;DHT22;6773;51.192;7.024;2022-10-03T16:22:04;15.30;99.90
13405;DHT22;6773;51.192;7.024;2022-10-03T16:24:39;15.20;99.90
13405;DHT22;6773;51.192;7.024;2022-10-03T16:27:19;15.20;99.90
13405;DHT22;6773;51.192;7.024;2022-10-03T16:29:52;15.10;99.90
13405;DHT22;6773;51.192;7.024;2022-10-03T16:32:24;15.00;99.90
13405;DHT22;6773;51.192;7.024;2022-10-03T16:34:52;15.10;99.90
13405;DHT22;6773;51.192;7.024;2022-10-03T16:37:26;15.00;99.90
13405;DHT22;6773;51.192;7.024;2022-10-03T16:40:06;14.90;99.90
13405;DHT22;6773;51.192;7.024;2022-10-03T16:42:40;14.90;99.90
13405;DHT22;6773;51.192;7.024;2022-10-03T16:45:29;14.90;99.90
13405;DHT22;6773;51.192;7.024;2022-10-03T16:47:56;14.80;99.90
13405;DHT22;6773;51.192;7.024;2022-10-03T16:50:50;14.80;99.90
13405;DHT22;6773;51.192;7.024;2022-10-03T16:53:18;14.70;99.90
13405;DHT22;6773;51.192;7.024;2022-10-03T16:55:54;14.60;99.90
13405;DHT22;6773;51.192;7.024;2022-10-03T16:58:40;14.50;99.90
13405;DHT22;6773;51.192;7.024;2022-10-03T17:01:14;14.30;99.90
13405;DHT22;6773;51.192;7.024;2022-10-03T17:06:28;14.10;99.90
13405;DHT22;6773;51.192;7.024;2022-10-03T17:08:58;14.10;99.90
13405;DHT22;6773;51.192;7.024;2022-10-03T17:11:25;14.00;99.90
13405;DHT22;6773;51.192;7.024;2022-10-03T17:13:55;14.00;99.90
13405;DHT22;6773;51.192;7.024;2022-10-03T17:16:48;13.90;99.90
13405;DHT22;6773;51.192;7.024;2022-10-03T17:19:17;13.80;99.90
13405;DHT22;6773;51.192;7.024;2022-10-03T17:21:55;13.80;99.90
13405;DHT22;6773;51.192;7.024;2022-10-03T17:24:28;13.70;99.90
13405;DHT22;6773;51.192;7.024;2022-10-03T17:26:59;13.70;99.90
13405;DHT22;6773;51.192;7.024;2022-10-03T17:29:34;13.60;99.90
13405;DHT22;6773;51.192;7.024;2022-10-03T17:32:13;13.50;99.90
13405;DHT22;6773;51.192;7.024;2022-10-03T17:34:57;13.40;99.90
13405;DHT22;6773;51.192;7.024;2022-10-03T17:43:22;13.00;99.90
13405;DHT22;6773;51.192;7.024;2022-10-03T17:46:08;13.00;99.90
13405;DHT22;6773;51.192;7.024;2022-10-03T17:51:41;12.90;99.90
13405;DHT22;6773;51.192;7.024;2022-10-03T17:54:35;12.90;99.90
13405;DHT22;6773;51.192;7.024;2022-10-03T17:57:24;12.90;99.90
13405;DHT22;6773;51.192;7.024;2022-10-03T18:00:01;12.80;99.90
13405;DHT22;6773;51.192;7.024;2022-10-03T18:05:14;12.50;99.90
13405;DHT22;6773;51.192;7.024;2022-10-03T18:07:42;12.50;99.90
13405;DHT22;6773;51.192;7.024;2022-10-03T18:10:30;12.40;99.90
13405;DHT22;6773;51.192;7.024;2022-10-03T18:13:00;12.30;99.90
13405;DHT22;6773;51.192;7.024;2022-10-03T18:32:15;12.00;99.90
13405;DHT22;6773;51.192;7.024;2022-10-03T18:35:09;12.00;99.90
13405;DHT22;6773;51.192;7.024;2022-10-03T18:40:24;11.90;99.90
13405;DHT22;6773;51.192;7.024;2022-10-03T18:42:51;11.90;99.90
13405;DHT22;6773;51.192;7.024;2022-10-03T18:45:28;11.80;99.90
13405;DHT22;6773;51.192;7.024;2022-10-03T18:48:21;11.80;99.90
13405;DHT22;6773;51.192;7.024;2022-10-03T18:50:55;11.80;99.90
13405;DHT22;6773;51.192;7.024;2022-10-03T18:53:48;11.80;99.90
13405;DHT22;6773;51.192;7.024;2022-10-03T18:56:24;11.80;99.90
13405;DHT22;6773;51.192;7.024;2022-10-03T18:58:55;11.80;99.90
13405;DHT22;6773;51.192;7.024;2022-10-03T19:04:18;11.80;99.90
13405;DHT22;6773;51.192;7.024;2022-10-03T19:06:48;11.80;99.90
13405;DHT22;6773;51.192;7.024;2022-10-03T19:09:21;11.70;99.90
13405;DHT22;6773;51.192;7.024;2022-10-03T19:11:52;11.70;99.90
13405;DHT22;6773;51.192;7.024;2022-10-03T19:14:31;11.70;99.90
13405;DHT22;6773;51.192;7.024;2022-10-03T19:17:21;11.60;99.90
13405;DHT22;6773;51.192;7.024;2022-10-03T19:19:59;11.60;99.90
13405;DHT22;6773;51.192;7.024;2022-10-03T19:22:38;11.60;99.90
13405;DHT22;6773;51.192;7.024;2022-10-03T19:25:17;11.60;99.90
13405;DHT22;6773;51.192;7.024;2022-10-03T19:27:59;11.60;99.90
13405;DHT22;6773;51.192;7.024;2022-10-03T19:30:28;11.60;99.90
13405;DHT22;6773;51.192;7.024;2022-10-03T19:33:02;11.70;99.90
13405;DHT22;6773;51.192;7.024;2022-10-03T19:35:32;11.70;99.90
13405;DHT22;6773;51.192;7.024;2022-10-03T19:38:30;11.80;99.90
13405;DHT22;6773;51.192;7.024;2022-10-03T19:41:13;11.70;99.90
13405;DHT22;6773;51.192;7.024;2022-10-03T19:43:44;11.70;99.90
13405;DHT22;6773;51.192;7.024;2022-10-03T19:46:17;11.70;99.90
13405;DHT22;6773;51.192;7.024;2022-10-03T19:49:13;11.60;99.90
13405;DHT22;6773;51.192;7.024;2022-10-03T19:51:41;11.60;99.90
13405;DHT22;6773;51.192;7.024;2022-10-03T19:54:25;11.60;99.90
13405;DHT22;6773;51.192;7.024;2022-10-03T19:56:51;11.60;99.90
13405;DHT22;6773;51.192;7.024;2022-10-03T19:59:32;11.60;99.90
13405;DHT22;6773;51.192;7.024;2022-10-03T20:02:04;11.60;99.90
13405;DHT22;6773;51.192;7.024;2022-10-03T20:04:34;11.60;99.90
13405;DHT22;6773;51.192;7.024;2022-10-03T20:07:16;11.60;99.90
13405;DHT22;6773;51.192;7.024;2022-10-03T20:10:15;11.50;99.90
13405;DHT22;6773;51.192;7.024;2022-10-03T20:12:48;11.50;99.90
13405;DHT22;6773;51.192;7.024;2022-10-03T20:15:23;11.40;99.90
13405;DHT22;6773;51.192;7.024;2022-10-03T20:17:59;11.40;99.90
13405;DHT22;6773;51.192;7.024;2022-10-03T20:20:28;11.30;99.90
13405;DHT22;6773;51.192;7.024;2022-10-03T20:23:05;11.30;99.90
13405;DHT22;6773;51.192;7.024;2022-10-03T20:25:38;11.40;99.90
13405;DHT22;6773;51.192;7.024;2022-10-03T20:28:18;11.40;99.90
13405;DHT22;6773;51.192;7.024;2022-10-03T20:30:50;11.30;99.90
13405;DHT22;6773;51.192;7.024;2022-10-03T20:33:33;11.30;99.90
13405;DHT22;6773;51.192;7.024;2022-10-03T20:36:24;11.20;99.90
13405;DHT22;6773;51.192;7.024;2022-10-03T20:44:37;11.10;99.90
13405;DHT22;6773;51.192;7.024;2022-10-03T20:52:51;11.10;99.90
13405;DHT22;6773;51.192;7.024;2022-10-03T20:55:21;11.10;99.90
13405;DHT22;6773;51.192;7.024;2022-10-03T21:00:29;11.00;99.90
13405;DHT22;6773;51.192;7.024;2022-10-03T21:05:30;11.00;99.90
13405;DHT22;6773;51.192;7.024;2022-10-03T21:08:03;11.00;99.90
13405;DHT22;6773;51.192;7.024;2022-10-03T21:10:38;11.00;99.90
13405;DHT22;6773;51.192;7.024;2022-10-03T21:13:24;10.90;99.90
13405;DHT22;6773;51.192;7.024;2022-10-03T21:15:57;11.00;99.90
13405;DHT22;6773;51.192;7.024;2022-10-03T21:18:27;10.90;99.90
13405;DHT22;6773;51.192;7.024;2022-10-03T21:20:59;10.90;99.90
13405;DHT22;6773;51.192;7.024;2022-10-03T21:23:27;10.90;99.90
13405;DHT22;6773;51.192;7.024;2022-10-03T21:25:55;10.90;99.90
13405;DHT22;6773;51.192;7.024;2022-10-03T21:28:31;10.90;99.90
13405;DHT22;6773;51.192;7.024;2022-10-03T21:31:35;10.80;99.90
13405;DHT22;6773;51.192;7.024;2022-10-03T21:34:20;10.80;99.90
13405;DHT22;6773;51.192;7.024;2022-10-03T21:36:53;10.80;99.90
13405;DHT22;6773;51.192;7.024;2022-10-03T21:42:33;10.70;99.90
13405;DHT22;6773;51.192;7.024;2022-10-03T21:47:45;10.50;99.90
13405;DHT22;6773;51.192;7.024;2022-10-03T21:50:18;10.60;99.90
13405;DHT22;6773;51.192;7.024;2022-10-03T22:01:03;10.60;99.90
13405;DHT22;6773;51.192;7.024;2022-10-03T22:03:44;10.60;99.90
13405;DHT22;6773;51.192;7.024;2022-10-03T22:06:24;10.60;99.90
13405;DHT22;6773;51.192;7.024;2022-10-03T22:11:49;10.70;99.90
13405;DHT22;6773;51.192;7.024;2022-10-03T22:14:28;10.70;99.90
13405;DHT22;6773;51.192;7.024;2022-10-03T22:17:14;10.70;99.90
13405;DHT22;6773;51.192;7.024;2022-10-03T22:19:48;10.70;99.90
13405;DHT22;6773;51.192;7.024;2022-10-03T22:22:27;10.80;99.90
13405;DHT22;6773;51.192;7.024;2022-10-03T22:25:08;10.80;99.90
13405;DHT22;6773;51.192;7.024;2022-10-03T22:27:50;10.80;99.90
13405;DHT22;6773;51.192;7.024;2022-10-03T22:30:19;10.70;99.90
13405;DHT22;6773;51.192;7.024;2022-10-03T22:33:04;10.80;99.90
13405;DHT22;6773;51.192;7.024;2022-10-03T22:35:52;10.70;99.90
13405;DHT22;6773;51.192;7.024;2022-10-03T22:38:31;10.70;99.90
13405;DHT22;6773;51.192;7.024;2022-10-03T22:41:02;10.70;99.90
13405;DHT22;6773;51.192;7.024;2022-10-03T22:43:34;10.70;99.90
13405;DHT22;6773;51.192;7.024;2022-10-03T22:46:02;10.70;99.90
13405;DHT22;6773;51.192;7.024;2022-10-03T22:48:45;10.70;99.90
13405;DHT22;6773;51.192;7.024;2022-10-03T22:51:12;10.60;99.90
13405;DHT22;6773;51.192;7.024;2022-10-03T22:53:44;10.60;99.90
13405;DHT22;6773;51.192;7.024;2022-10-03T22:56:30;10.50;99.90
13405;DHT22;6773;51.192;7.024;2022-10-03T22:59:02;10.50;99.90
13405;DHT22;6773;51.192;7.024;2022-10-03T23:01:30;10.50;99.90
13405;DHT22;6773;51.192;7.024;2022-10-03T23:03:56;10.50;99.90
13405;DHT22;6773;51.192;7.024;2022-10-03T23:11:49;10.50;99.90
13405;DHT22;6773;51.192;7.024;2022-10-03T23:22:15;10.40;99.90
13405;DHT22;6773;51.192;7.024;2022-10-03T23:24:45;10.40;99.90
13405;DHT22;6773;51.192;7.024;2022-10-03T23:27:39;10.40;99.90
13405;DHT22;6773;51.192;7.024;2022-10-03T23:35:18;10.40;99.90
13405;DHT22;6773;51.192;7.024;2022-10-03T23:37:46;10.40;99.90
13405;DHT22;6773;51.192;7.024;2022-10-03T23:40:43;10.40;99.90
13405;DHT22;6773;51.192;7.024;2022-10-03T23:46:02;10.40;99.90
13405;DHT22;6773;51.192;7.024;2022-10-03T23:48:36;10.40;99.90
13405;DHT22;6773;51.192;7.024;2022-10-03T23:51:05;10.40;99.90
13405;DHT22;6773;51.192;7.024;2022-10-03T23:55:59;10.40;99.90
13405;DHT22;6773;51.192;7.024;2022-10-03T23:58:32;10.50;99.90
